Time;durP1;ratioP1;P1;durP2;ratioP2;P2;SDS_P1;SDS_P2;PMS_P1;PMS_P2;Temp;Humidity;BMP_temperature;BMP_pressure;BME280_temperature;BME280_humidity;BME280_pressure;Samples;Min_cycle;Max_cycle;Signal;HPM_P1;HPM_P2
2021/05/16 00:05:41;;;;;;;5.97;4.00;;;;;;;14.26;81.34;99578.16;20989978;28;20220;-65
2021/05/16 00:15:42;;;;;;;4.82;4.43;;;;;;;14.13;81.89;99556.16;20988858;28;20247;-64
2021/05/16 00:25:44;;;;;;;6.28;3.95;;;;;;;14.13;82.42;99556.16;20988563;28;20304;-64
2021/05/16 00:35:45;;;;;;;4.20;3.90;;;;;;;14.04;82.77;99534.50;20987555;28;20252;-65
2021/05/16 00:45:47;;;;;;;5.20;4.23;;;;;;;14.06;81.64;99529.84;20986273;28;20219;-65
2021/05/16 00:55:50;;;;;;;4.67;4.23;;;;;;;14.01;83.06;99510.63;20985277;28;20497;-64
2021/05/16 01:05:50;;;;;;;5.10;4.60;;;;;;;13.89;83.25;99502.88;20984652;28;20584;-68
2021/05/16 01:15:51;;;;;;;5.30;4.80;;;;;;;13.77;85.53;99494.09;20985292;28;20243;-64
2021/05/16 01:25:52;;;;;;;6.00;5.20;;;;;;;13.72;85.42;99488.31;20985373;28;20215;-65
2021/05/16 01:35:52;;;;;;;5.10;4.60;;;;;;;13.69;88.50;99484.06;20983285;28;20716;-64
2021/05/16 01:45:53;;;;;;;5.30;4.90;;;;;;;13.61;90.89;99485.75;20983097;28;20224;-64
2021/05/16 01:55:54;;;;;;;5.60;5.10;;;;;;;13.45;93.68;99472.03;20994563;28;20724;-66
2021/05/16 02:05:55;;;;;;;6.10;5.60;;;;;;;13.31;97.27;99474.09;20999489;28;20221;-63
2021/05/16 02:15:55;;;;;;;6.67;6.07;;;;;;;13.26;97.03;99475.53;20997118;28;20292;-67
2021/05/16 02:25:56;;;;;;;7.53;6.83;;;;;;;13.21;98.58;99473.25;20997939;28;20243;-64
2021/05/16 02:35:56;;;;;;;7.47;6.40;;;;;;;13.14;98.26;99466.75;20995982;28;20238;-68
2021/05/16 02:45:56;;;;;;;6.00;5.50;;;;;;;13.20;99.54;99471.53;20996203;27;20291;-64
2021/05/16 02:55:57;;;;;;;7.63;6.93;;;;;;;13.15;100.00;99463.06;20994375;28;20277;-64
2021/05/16 03:05:58;;;;;;;10.70;8.57;;;;;;;13.11;100.00;99466.97;20994496;28;20874;-66
2021/05/16 03:15:58;;;;;;;8.80;8.00;;;;;;;13.02;100.00;99458.91;20994101;28;20307;-66
2021/05/16 03:26:01;;;;;;;9.17;8.30;;;;;;;13.12;100.00;99465.13;20993673;28;20214;-65
2021/05/16 03:36:02;;;;;;;8.17;7.37;;;;;;;13.33;100.00;99477.50;20992331;28;20298;-68
2021/05/16 03:46:02;;;;;;;9.70;8.37;;;;;;;13.49;100.00;99557.41;20990464;28;20639;-66
2021/05/16 03:56:03;;;;;;;10.87;6.87;;;;;;;13.14;100.00;99544.41;20990625;28;20232;-69
2021/05/16 04:06:04;;;;;;;4.40;4.00;;;;;;;12.92;100.00;99532.00;20990209;28;20448;-68
2021/05/16 04:16:04;;;;;;;3.47;3.13;;;;;;;12.84;100.00;99480.94;20988334;28;20223;-66
2021/05/16 04:26:05;;;;;;;2.50;2.30;;;;;;;13.01;100.00;99475.94;20988116;28;20700;-64
2021/05/16 04:36:05;;;;;;;3.43;3.23;;;;;;;13.37;100.00;99453.13;20988027;28;20228;-64
2021/05/16 04:46:06;;;;;;;7.57;6.87;;;;;;;13.56;100.00;99448.63;20987259;28;20240;-64
2021/05/16 04:56:07;;;;;;;7.57;6.97;;;;;;;14.20;100.00;99455.31;20986289;28;20545;-62
2021/05/16 05:06:07;;;;;;;7.43;6.87;;;;;;;14.92;100.00;99449.38;20986087;28;20221;-63
2021/05/16 05:16:08;;;;;;;6.93;6.43;;;;;;;15.31;97.65;99436.59;20985397;28;20217;-62
2021/05/16 05:26:08;;;;;;;7.73;7.10;;;;;;;15.94;95.03;99442.81;20983545;28;20218;-62
2021/05/16 05:36:09;;;;;;;7.20;6.57;;;;;;;16.50;91.42;99447.00;20983506;28;20310;-64
2021/05/16 05:46:10;;;;;;;6.40;5.90;;;;;;;17.45;85.51;99446.84;20984152;28;20916;-62
2021/05/16 05:56:10;;;;;;;5.87;5.47;;;;;;;17.73;81.03;99457.41;20983559;28;20453;-63
2021/05/16 06:06:11;;;;;;;6.17;5.00;;;;;;;17.82;81.32;99451.88;20983486;28;20222;-62
2021/05/16 06:16:12;;;;;;;4.50;4.10;;;;;;;18.99;79.20;99451.50;20981319;28;20228;-62
2021/05/16 06:26:12;;;;;;;3.90;3.60;;;;;;;19.31;74.95;99450.56;20982484;28;20221;-62
2021/05/16 06:36:12;;;;;;;5.27;4.77;;;;;;;19.78;73.24;99453.22;20936267;28;20776;-62
2021/05/16 06:46:14;;;;;;;5.37;4.97;;;;;;;20.03;71.69;99445.75;20940557;28;20218;-63
2021/05/16 06:56:15;;;;;;;4.80;4.40;;;;;;;20.51;71.22;99447.25;20938417;28;20218;-61
2021/05/16 07:06:15;;;;;;;4.97;4.47;;;;;;;21.06;69.25;99454.97;20938507;28;20214;-61
2021/05/16 07:16:16;;;;;;;7.80;7.20;;;;;;;19.67;71.86;99438.22;20935526;28;20284;-60
2021/05/16 07:26:16;;;;;;;8.93;8.23;;;;;;;19.23;78.03;99450.56;20933863;28;20778;-60
2021/05/16 07:36:17;;;;;;;8.87;8.17;;;;;;;19.21;76.40;99444.47;20934508;28;20245;-60
2021/05/16 07:46:17;;;;;;;7.37;6.77;;;;;;;19.84;75.74;99440.81;20930391;28;20252;-59
2021/05/16 07:56:18;;;;;;;6.20;5.70;;;;;;;20.61;72.37;99441.56;20919768;28;20233;-60
2021/05/16 08:06:18;;;;;;;8.00;7.20;;;;;;;20.79;71.48;99431.22;20930705;28;20324;-59
2021/05/16 08:16:19;;;;;;;6.50;5.93;;;;;;;20.81;70.20;99427.28;20929976;28;20269;-59
2021/05/16 08:26:19;;;;;;;5.50;4.97;;;;;;;21.36;69.11;99417.03;20926711;28;20892;-61
2021/05/16 08:36:20;;;;;;;5.97;5.47;;;;;;;21.90;65.22;99415.53;20926392;28;20242;-61
2021/05/16 08:46:21;;;;;;;4.77;4.40;;;;;;;22.38;64.40;99413.09;20921104;28;20313;-62
2021/05/16 08:56:22;;;;;;;4.47;4.17;;;;;;;22.62;63.10;99409.94;20923282;28;21556;-62
2021/05/16 09:06:34;;;;;;;4.43;4.03;;;;;;;23.03;60.66;99406.47;20925181;28;20218;-62
2021/05/16 09:16:35;;;;;;;3.83;3.53;;;;;;;23.33;60.73;99417.91;20928259;28;20287;-62
2021/05/16 09:26:56;;;;;;;3.50;3.30;;;;;;;24.02;57.13;99418.59;20921082;28;20211;-62
2021/05/16 09:36:57;;;;;;;4.30;3.83;;;;;;;24.75;56.68;99422.19;20926284;28;20226;-62
2021/05/16 09:47:20;;;;;;;4.23;3.90;;;;;;;25.51;53.73;99407.94;20924493;28;20222;-62
2021/05/16 09:57:21;;;;;;;3.43;3.23;;;;;;;25.94;53.98;99401.84;20924596;28;20859;-62
2021/05/16 10:07:23;;;;;;;3.70;3.50;;;;;;;25.91;54.86;99386.72;20923461;28;20219;-63
2021/05/16 10:17:23;;;;;;;5.90;5.40;;;;;;;25.84;54.53;99369.53;20932669;28;20461;-62
2021/05/16 10:27:26;;;;;;;5.17;4.77;;;;;;;24.86;54.34;99348.94;20934666;28;20226;-62
2021/05/16 10:37:51;;;;;;;4.80;4.10;;;;;;;24.27;53.06;99334.31;20929458;28;20286;-63
2021/05/16 10:47:53;;;;;;;2.80;2.60;;;;;;;24.55;54.50;99328.63;20916799;28;20223;-63
2021/05/16 10:57:54;;;;;;;2.07;1.97;;;;;;;24.85;52.92;99344.53;20935137;28;20376;-60
2021/05/16 11:07:54;;;;;;;9.80;2.60;;;;;;;24.47;53.43;99345.22;20932994;28;20238;-61
2021/05/16 11:17:55;;;;;;;1.90;1.80;;;;;;;22.68;54.76;99353.91;20933103;28;20617;-65
2021/05/16 11:27:55;;;;;;;1.70;1.60;;;;;;;20.03;61.25;99348.25;20931187;28;21028;-62
2021/05/16 11:37:56;;;;;;;3.03;2.30;;;;;;;18.44;68.37;99329.84;20931614;28;20304;-60
2021/05/16 11:47:57;;;;;;;2.40;2.20;;;;;;;17.67;72.51;99342.03;20930351;28;21001;-59
2021/05/16 11:57:58;;;;;;;3.17;2.50;;;;;;;17.23;78.59;99369.25;20927497;28;20235;-60
2021/05/16 12:07:58;;;;;;;2.50;2.27;;;;;;;16.96;81.99;99385.66;20927932;28;20887;-62
2021/05/16 12:17:58;;;;;;;3.00;2.10;;;;;;;16.54;83.54;99367.59;20927937;28;20291;-61
2021/05/16 12:28:02;;;;;;;4.77;2.53;;;;;;;16.57;87.69;99375.31;20927959;28;21915;-60
2021/05/16 12:38:12;;;;;;;2.37;2.17;;;;;;;16.30;92.07;99367.44;20925760;28;20792;-62
2021/05/16 12:48:19;;;;;;;1.33;1.23;;;;;;;16.51;87.55;99373.28;20926596;28;20371;-60
2021/05/16 12:58:56;;;;;;;1.30;1.27;;;;;;;17.15;85.64;99366.50;20924223;28;20227;-60
2021/05/16 13:08:52;;;;;;;1.57;1.30;;;;;;;17.78;82.59;99390.28;20922200;28;20230;-66
2021/05/16 13:18:55;;;;;;;3.97;3.43;;;;;;;18.17;80.30;99388.63;20924304;28;20234;-59
2021/05/16 13:28:56;;;;;;;1.77;1.67;;;;;;;19.61;79.20;99390.19;20923877;28;20314;-54
2021/05/16 13:38:57;;;;;;;1.40;1.30;;;;;;;20.34;72.85;99376.06;20923676;28;21589;-54
2021/05/16 13:48:57;;;;;;;1.27;1.10;;;;;;;20.95;70.89;99374.09;20927626;28;20345;-55
2021/05/16 13:58:58;;;;;;;1.20;1.10;;;;;;;22.16;68.36;99343.50;20937676;28;20480;-54
2021/05/16 14:08:59;;;;;;;1.00;1.00;;;;;;;21.88;66.58;99329.84;20932469;28;20223;-54
2021/05/16 14:19:00;;;;;;;1.20;1.13;;;;;;;21.71;68.30;99329.28;20933192;28;20242;-54
2021/05/16 14:29:01;;;;;;;1.40;1.30;;;;;;;22.24;67.11;99330.59;20934099;28;20372;-56
2021/05/16 14:39:02;;;;;;;1.50;1.40;;;;;;;22.84;65.39;99326.41;20931934;28;20288;-55
2021/05/16 14:49:03;;;;;;;1.30;1.20;;;;;;;22.89;62.98;99331.25;20932810;28;20219;-64
2021/05/16 14:59:04;;;;;;;4.17;3.00;;;;;;;22.76;61.89;99328.47;20928733;28;20234;-54
2021/05/16 15:09:05;;;;;;;2.10;1.60;;;;;;;22.39;62.58;99333.22;20926921;28;21020;-58
2021/05/16 15:19:06;;;;;;;1.37;1.27;;;;;;;21.50;63.55;99316.53;20929776;28;20239;-58
2021/05/16 15:29:07;;;;;;;2.00;1.87;;;;;;;20.43;65.27;99312.66;20930297;28;20219;-57
2021/05/16 15:39:08;;;;;;;2.93;2.67;;;;;;;19.93;64.33;99320.56;20928891;28;20235;-71
2021/05/16 15:49:08;;;;;;;3.07;2.37;;;;;;;19.54;64.67;99315.31;20898123;28;20237;-63
2021/05/16 15:59:10;;;;;;;2.90;2.33;;;;;;;19.43;66.07;99319.25;20916122;28;20828;-64
2021/05/16 16:09:11;;;;;;;2.60;2.40;;;;;;;19.10;67.74;99312.34;20898691;28;20226;-64
2021/05/16 16:19:11;;;;;;;2.87;2.67;;;;;;;19.26;67.63;99323.94;20911598;28;20418;-63
2021/05/16 16:29:12;;;;;;;1.70;1.60;;;;;;;18.67;68.79;99295.69;20900482;28;20886;-70
2021/05/16 16:39:12;;;;;;;3.33;2.00;;;;;;;18.41;70.69;99303.16;20907096;28;20330;-65
2021/05/16 16:49:13;;;;;;;3.10;2.87;;;;;;;17.92;70.22;99303.25;20902728;28;20312;-67
2021/05/16 16:59:14;;;;;;;2.20;2.00;;;;;;;17.67;72.65;99301.56;20899710;28;20246;-68
2021/05/16 17:09:15;;;;;;;1.30;1.30;;;;;;;17.50;74.71;99301.56;20912310;28;20257;-64
2021/05/16 17:19:16;;;;;;;1.63;1.53;;;;;;;17.32;75.04;99306.25;20893160;28;20702;-60
2021/05/16 17:29:16;;;;;;;1.10;1.10;;;;;;;17.17;76.65;99306.03;20910234;28;20234;-66
2021/05/16 17:39:17;;;;;;;2.57;2.37;;;;;;;17.03;78.57;99309.38;20893580;28;20636;-67
2021/05/16 17:49:18;;;;;;;2.03;1.93;;;;;;;16.84;79.84;99302.41;20913146;28;20472;-65
2021/05/16 17:59:18;;;;;;;3.50;2.43;;;;;;;16.70;80.50;99312.97;20896430;28;20481;-61
2021/05/16 18:09:19;;;;;;;2.13;2.03;;;;;;;16.48;82.07;99317.88;20907750;28;20260;-62
2021/05/16 18:19:20;;;;;;;2.33;2.05;;;;;;;16.41;83.63;99324.09;20899944;28;20223;-60
2021/05/16 18:29:20;;;;;;;2.63;2.47;;;;;;;16.26;83.76;99321.13;20894838;28;20226;-70
2021/05/16 18:39:21;;;;;;;3.97;2.93;;;;;;;16.01;85.20;99333.59;20920194;28;20303;-61
2021/05/16 18:49:22;;;;;;;3.40;3.10;;;;;;;15.71;87.14;99342.06;20905731;28;20215;-59
2021/05/16 18:59:22;;;;;;;3.87;2.67;;;;;;;15.48;89.25;99337.13;20927473;28;20461;-62
2021/05/16 19:09:23;;;;;;;3.73;3.33;;;;;;;15.28;91.61;99349.03;20904888;28;20316;-71
2021/05/16 19:19:24;;;;;;;3.87;3.50;;;;;;;15.10;92.98;99337.41;20924937;28;20226;-62
2021/05/16 19:29:24;;;;;;;3.40;3.10;;;;;;;15.02;93.81;99345.38;20907477;28;20226;-67
2021/05/16 19:39:25;;;;;;;3.17;2.97;;;;;;;14.90;94.97;99360.03;20905105;28;20234;-71
2021/05/16 19:49:27;;;;;;;3.50;3.20;;;;;;;14.76;96.88;99359.50;20906991;28;20886;-64
2021/05/16 19:59:28;;;;;;;3.80;3.43;;;;;;;14.76;97.12;99367.56;20909050;28;20710;-63
2021/05/16 20:09:28;;;;;;;3.00;2.80;;;;;;;14.61;96.88;99379.78;20916986;28;20294;-63
2021/05/16 20:19:29;;;;;;;2.97;2.77;;;;;;;14.19;97.44;99373.09;20899125;28;20467;-64
2021/05/16 20:29:32;;;;;;;3.23;3.03;;;;;;;13.93;98.49;99389.81;20918906;28;20225;-63
2021/05/16 20:39:32;;;;;;;3.70;3.40;;;;;;;13.75;99.96;99382.63;20896615;28;20252;-62
2021/05/16 20:49:33;;;;;;;4.73;4.33;;;;;;;13.64;100.00;99391.66;20917104;28;20707;-66
2021/05/16 20:59:34;;;;;;;4.67;4.27;;;;;;;13.67;100.00;99394.88;20899792;28;20463;-60
2021/05/16 21:09:34;;;;;;;3.67;3.37;;;;;;;13.86;100.00;99410.16;20909779;28;20223;-62
2021/05/16 21:19:36;;;;;;;3.73;3.43;;;;;;;13.97;100.00;99411.84;20899601;28;21027;-62
2021/05/16 21:29:38;;;;;;;3.77;3.47;;;;;;;13.95;100.00;99414.66;20908709;28;20962;-65
2021/05/16 21:39:39;;;;;;;3.10;2.90;;;;;;;13.77;100.00;99423.53;20913155;28;20226;-63
2021/05/16 21:49:39;;;;;;;3.77;2.90;;;;;;;13.41;100.00;99425.03;20922394;28;20222;-61
2021/05/16 21:59:40;;;;;;;2.87;2.60;;;;;;;12.89;100.00;99418.97;20887592;28;20243;-61
2021/05/16 22:09:40;;;;;;;2.60;2.50;;;;;;;12.47;100.00;99415.50;20872350;28;20695;-62
2021/05/16 22:19:41;;;;;;;3.00;2.77;;;;;;;12.13;100.00;99428.25;20904623;28;20224;-60
2021/05/16 22:29:41;;;;;;;3.80;3.37;;;;;;;11.83;100.00;99415.66;20884799;28;20289;-71
2021/05/16 22:39:43;;;;;;;2.77;2.57;;;;;;;11.59;100.00;99417.69;20899536;28;20231;-60
2021/05/16 22:49:43;;;;;;;2.57;2.37;;;;;;;11.34;100.00;99411.69;20890563;28;20323;-60
2021/05/16 22:59:44;;;;;;;3.33;3.13;;;;;;;11.16;100.00;99403.34;20890785;28;20222;-62
2021/05/16 23:09:45;;;;;;;3.00;2.70;;;;;;;11.03;100.00;99394.63;20897547;28;21097;-59
2021/05/16 23:29:42;;;;;;;3.00;2.80;;;;;;;10.78;100.00;99387.72;20885317;27;20648;-62
2021/05/16 23:49:41;;;;;;;3.70;3.40;;;;;;;10.53;100.00;99368.47;20885697;27;20556;-62
